sensor_id;sensor_type;location;lat;lon;timestamp;temperature;humidity
48604;DHT22;32708;51.212;6.788;2023-01-20T00:01:21;2.90;99.90
48604;DHT22;32708;51.212;6.788;2023-01-20T00:03:47;2.90;99.90
48604;DHT22;32708;51.212;6.788;2023-01-20T00:06:15;2.80;99.90
48604;DHT22;32708;51.212;6.788;2023-01-20T00:08:41;3.00;99.90
48604;DHT22;32708;51.212;6.788;2023-01-20T00:11:11;3.00;99.90
48604;DHT22;32708;51.212;6.788;2023-01-20T00:13:38;3.00;99.90
48604;DHT22;32708;51.212;6.788;2023-01-20T00:16:07;3.00;99.90
48604;DHT22;32708;51.212;6.788;2023-01-20T00:18:33;3.00;99.90
48604;DHT22;32708;51.212;6.788;2023-01-20T00:21:11;2.90;99.90
48604;DHT22;32708;51.212;6.788;2023-01-20T00:23:38;3.20;99.90
48604;DHT22;32708;51.212;6.788;2023-01-20T00:26:10;2.80;99.90
48604;DHT22;32708;51.212;6.788;2023-01-20T00:28:36;2.80;99.90
48604;DHT22;32708;51.212;6.788;2023-01-20T00:31:18;3.00;99.90
48604;DHT22;32708;51.212;6.788;2023-01-20T00:33:46;2.90;99.90
48604;DHT22;32708;51.212;6.788;2023-01-20T00:36:14;2.80;99.90
48604;DHT22;32708;51.212;6.788;2023-01-20T00:38:40;2.90;99.90
48604;DHT22;32708;51.212;6.788;2023-01-20T00:41:07;2.90;99.90
48604;DHT22;32708;51.212;6.788;2023-01-20T00:43:34;3.00;99.90
48604;DHT22;32708;51.212;6.788;2023-01-20T00:46:00;2.90;99.90
48604;DHT22;32708;51.212;6.788;2023-01-20T00:48:29;2.90;99.90
48604;DHT22;32708;51.212;6.788;2023-01-20T00:50:55;2.90;99.90
48604;DHT22;32708;51.212;6.788;2023-01-20T00:53:21;2.90;99.90
48604;DHT22;32708;51.212;6.788;2023-01-20T00:55:47;2.90;99.90
48604;DHT22;32708;51.212;6.788;2023-01-20T00:58:13;3.30;99.90
48604;DHT22;32708;51.212;6.788;2023-01-20T01:00:39;2.80;99.90
48604;DHT22;32708;51.212;6.788;2023-01-20T01:03:05;2.70;99.90
48604;DHT22;32708;51.212;6.788;2023-01-20T01:05:32;2.70;99.90
48604;DHT22;32708;51.212;6.788;2023-01-20T01:07:58;2.70;99.90
48604;DHT22;32708;51.212;6.788;2023-01-20T01:10:24;2.60;99.90
48604;DHT22;32708;51.212;6.788;2023-01-20T01:12:50;2.80;99.90
48604;DHT22;32708;51.212;6.788;2023-01-20T01:15:16;2.70;99.90
48604;DHT22;32708;51.212;6.788;2023-01-20T01:17:42;2.70;99.90
48604;DHT22;32708;51.212;6.788;2023-01-20T01:20:13;2.60;99.90
48604;DHT22;32708;51.212;6.788;2023-01-20T01:22:39;2.60;99.90
48604;DHT22;32708;51.212;6.788;2023-01-20T01:25:05;2.60;99.90
48604;DHT22;32708;51.212;6.788;2023-01-20T01:27:31;2.50;99.90
48604;DHT22;32708;51.212;6.788;2023-01-20T01:29:57;2.60;99.90
48604;DHT22;32708;51.212;6.788;2023-01-20T01:32:23;2.50;99.90
48604;DHT22;32708;51.212;6.788;2023-01-20T01:34:49;2.50;99.90
48604;DHT22;32708;51.212;6.788;2023-01-20T01:37:15;2.50;99.90
48604;DHT22;32708;51.212;6.788;2023-01-20T01:39:41;2.70;99.90
48604;DHT22;32708;51.212;6.788;2023-01-20T01:42:17;2.50;99.90
48604;DHT22;32708;51.212;6.788;2023-01-20T01:45:24;2.50;99.90
48604;DHT22;32708;51.212;6.788;2023-01-20T01:48:23;2.60;99.90
48604;DHT22;32708;51.212;6.788;2023-01-20T01:51:04;2.40;99.90
48604;DHT22;32708;51.212;6.788;2023-01-20T01:53:40;2.40;99.90
48604;DHT22;32708;51.212;6.788;2023-01-20T01:56:08;2.40;99.90
48604;DHT22;32708;51.212;6.788;2023-01-20T01:58:39;2.70;99.90
48604;DHT22;32708;51.212;6.788;2023-01-20T02:01:07;2.50;99.90
48604;DHT22;32708;51.212;6.788;2023-01-20T02:06:55;2.50;99.90
48604;DHT22;32708;51.212;6.788;2023-01-20T02:09:23;2.50;99.90
48604;DHT22;32708;51.212;6.788;2023-01-20T02:11:55;2.50;99.90
48604;DHT22;32708;51.212;6.788;2023-01-20T02:14:38;2.50;99.90
48604;DHT22;32708;51.212;6.788;2023-01-20T02:17:24;2.50;99.90
48604;DHT22;32708;51.212;6.788;2023-01-20T02:22:45;2.50;99.90
48604;DHT22;32708;51.212;6.788;2023-01-20T02:25:32;2.60;99.90
48604;DHT22;32708;51.212;6.788;2023-01-20T02:34:05;2.60;99.90
48604;DHT22;32708;51.212;6.788;2023-01-20T02:36:44;2.60;99.90
48604;DHT22;32708;51.212;6.788;2023-01-20T02:39:40;2.60;99.90
48604;DHT22;32708;51.212;6.788;2023-01-20T02:42:14;2.60;99.90
48604;DHT22;32708;51.212;6.788;2023-01-20T02:44:58;2.60;99.90
48604;DHT22;32708;51.212;6.788;2023-01-20T02:47:50;2.60;99.90
48604;DHT22;32708;51.212;6.788;2023-01-20T02:53:14;2.60;99.90
48604;DHT22;32708;51.212;6.788;2023-01-20T02:55:51;2.60;99.90
48604;DHT22;32708;51.212;6.788;2023-01-20T02:58:24;2.60;99.90
48604;DHT22;32708;51.212;6.788;2023-01-20T03:00:58;2.60;99.90
48604;DHT22;32708;51.212;6.788;2023-01-20T03:03:32;2.60;99.90
48604;DHT22;32708;51.212;6.788;2023-01-20T03:06:03;2.80;99.90
48604;DHT22;32708;51.212;6.788;2023-01-20T03:08:32;2.80;99.90
48604;DHT22;32708;51.212;6.788;2023-01-20T03:11:06;2.70;99.90
48604;DHT22;32708;51.212;6.788;2023-01-20T03:13:56;2.70;99.90
48604;DHT22;32708;51.212;6.788;2023-01-20T03:16:28;2.70;99.90
48604;DHT22;32708;51.212;6.788;2023-01-20T03:18:54;2.60;99.90
48604;DHT22;32708;51.212;6.788;2023-01-20T03:21:21;2.60;99.90
48604;DHT22;32708;51.212;6.788;2023-01-20T03:23:54;3.00;99.90
48604;DHT22;32708;51.212;6.788;2023-01-20T03:26:21;2.80;99.90
48604;DHT22;32708;51.212;6.788;2023-01-20T03:28:48;2.70;99.90
48604;DHT22;32708;51.212;6.788;2023-01-20T03:31:25;2.80;99.90
48604;DHT22;32708;51.212;6.788;2023-01-20T03:33:56;2.80;99.90
48604;DHT22;32708;51.212;6.788;2023-01-20T03:36:26;2.80;99.90
48604;DHT22;32708;51.212;6.788;2023-01-20T03:38:55;2.80;99.90
48604;DHT22;32708;51.212;6.788;2023-01-20T03:41:29;2.80;99.90
48604;DHT22;32708;51.212;6.788;2023-01-20T03:55:50;2.90;99.90
48604;DHT22;32708;51.212;6.788;2023-01-20T03:58:26;3.00;99.90
48604;DHT22;32708;51.212;6.788;2023-01-20T04:00:55;3.00;99.90
48604;DHT22;32708;51.212;6.788;2023-01-20T04:03:27;3.10;99.90
48604;DHT22;32708;51.212;6.788;2023-01-20T04:05:57;3.00;99.90
48604;DHT22;32708;51.212;6.788;2023-01-20T04:08:30;3.10;99.90
48604;DHT22;32708;51.212;6.788;2023-01-20T04:11:04;2.90;99.90
48604;DHT22;32708;51.212;6.788;2023-01-20T04:13:31;2.80;99.90
48604;DHT22;32708;51.212;6.788;2023-01-20T04:16:00;3.10;99.90
48604;DHT22;32708;51.212;6.788;2023-01-20T04:18:26;2.90;99.90
48604;DHT22;32708;51.212;6.788;2023-01-20T04:21:02;3.00;99.90
48604;DHT22;32708;51.212;6.788;2023-01-20T04:23:39;2.80;99.90
48604;DHT22;32708;51.212;6.788;2023-01-20T04:26:08;2.90;99.90
48604;DHT22;32708;51.212;6.788;2023-01-20T04:28:36;2.90;99.90
48604;DHT22;32708;51.212;6.788;2023-01-20T04:31:02;3.00;99.90
48604;DHT22;32708;51.212;6.788;2023-01-20T04:33:28;2.90;99.90
48604;DHT22;32708;51.212;6.788;2023-01-20T04:35:56;2.90;99.90
48604;DHT22;32708;51.212;6.788;2023-01-20T04:38:22;2.80;99.90
48604;DHT22;32708;51.212;6.788;2023-01-20T04:40:48;2.80;99.90
48604;DHT22;32708;51.212;6.788;2023-01-20T04:43:16;2.80;99.90
48604;DHT22;32708;51.212;6.788;2023-01-20T04:45:44;2.80;99.90
48604;DHT22;32708;51.212;6.788;2023-01-20T04:48:10;2.70;99.90
48604;DHT22;32708;51.212;6.788;2023-01-20T04:50:38;2.70;99.90
48604;DHT22;32708;51.212;6.788;2023-01-20T04:53:06;2.70;99.90
48604;DHT22;32708;51.212;6.788;2023-01-20T04:55:32;2.90;99.90
48604;DHT22;32708;51.212;6.788;2023-01-20T04:57:59;2.80;99.90
48604;DHT22;32708;51.212;6.788;2023-01-20T05:00:25;2.80;99.90
48604;DHT22;32708;51.212;6.788;2023-01-20T05:02:52;2.80;99.90
48604;DHT22;32708;51.212;6.788;2023-01-20T05:05:20;2.70;99.90
48604;DHT22;32708;51.212;6.788;2023-01-20T05:07:51;2.90;99.90
48604;DHT22;32708;51.212;6.788;2023-01-20T05:10:18;2.90;99.90
48604;DHT22;32708;51.212;6.788;2023-01-20T05:12:44;2.90;99.90
48604;DHT22;32708;51.212;6.788;2023-01-20T05:15:13;3.00;99.90
48604;DHT22;32708;51.212;6.788;2023-01-20T05:17:39;2.90;99.90
48604;DHT22;32708;51.212;6.788;2023-01-20T05:20:05;2.90;99.90
48604;DHT22;32708;51.212;6.788;2023-01-20T05:22:31;2.80;99.90
48604;DHT22;32708;51.212;6.788;2023-01-20T05:25:00;2.70;99.90
48604;DHT22;32708;51.212;6.788;2023-01-20T05:27:26;2.70;99.90
48604;DHT22;32708;51.212;6.788;2023-01-20T05:29:52;2.80;99.90
48604;DHT22;32708;51.212;6.788;2023-01-20T05:32:18;2.70;99.90
48604;DHT22;32708;51.212;6.788;2023-01-20T05:34:44;2.80;99.90
48604;DHT22;32708;51.212;6.788;2023-01-20T05:37:11;2.80;99.90
48604;DHT22;32708;51.212;6.788;2023-01-20T05:39:37;2.60;99.90
48604;DHT22;32708;51.212;6.788;2023-01-20T05:42:03;2.80;99.90
48604;DHT22;32708;51.212;6.788;2023-01-20T05:44:29;2.70;99.90
48604;DHT22;32708;51.212;6.788;2023-01-20T05:46:55;2.70;99.90
48604;DHT22;32708;51.212;6.788;2023-01-20T05:49:21;2.60;99.90
48604;DHT22;32708;51.212;6.788;2023-01-20T05:51:47;2.50;99.90
48604;DHT22;32708;51.212;6.788;2023-01-20T05:54:13;3.00;99.90
48604;DHT22;32708;51.212;6.788;2023-01-20T05:56:39;2.70;99.90
48604;DHT22;32708;51.212;6.788;2023-01-20T05:59:05;2.70;99.90
48604;DHT22;32708;51.212;6.788;2023-01-20T06:01:32;2.80;99.90
48604;DHT22;32708;51.212;6.788;2023-01-20T06:03:58;2.70;99.90
48604;DHT22;32708;51.212;6.788;2023-01-20T06:06:25;2.80;99.90
48604;DHT22;32708;51.212;6.788;2023-01-20T06:08:52;2.90;99.90
48604;DHT22;32708;51.212;6.788;2023-01-20T06:11:19;2.80;99.90
48604;DHT22;32708;51.212;6.788;2023-01-20T06:13:46;2.90;99.90
48604;DHT22;32708;51.212;6.788;2023-01-20T06:16:13;2.80;99.90
48604;DHT22;32708;51.212;6.788;2023-01-20T06:18:39;2.70;99.90
48604;DHT22;32708;51.212;6.788;2023-01-20T06:21:07;2.70;99.90
48604;DHT22;32708;51.212;6.788;2023-01-20T06:23:35;2.70;99.90
48604;DHT22;32708;51.212;6.788;2023-01-20T06:26:10;2.60;99.90
48604;DHT22;32708;51.212;6.788;2023-01-20T06:28:37;2.60;99.90
48604;DHT22;32708;51.212;6.788;2023-01-20T06:31:06;2.80;99.90
48604;DHT22;32708;51.212;6.788;2023-01-20T06:33:33;2.90;99.90
48604;DHT22;32708;51.212;6.788;2023-01-20T06:35:59;3.00;99.90
48604;DHT22;32708;51.212;6.788;2023-01-20T06:38:29;3.10;99.90
48604;DHT22;32708;51.212;6.788;2023-01-20T06:41:04;3.20;99.90
48604;DHT22;32708;51.212;6.788;2023-01-20T06:43:32;3.20;99.90
48604;DHT22;32708;51.212;6.788;2023-01-20T06:46:03;3.30;99.90
48604;DHT22;32708;51.212;6.788;2023-01-20T06:48:30;3.30;99.90
48604;DHT22;32708;51.212;6.788;2023-01-20T06:51:05;3.30;99.90
48604;DHT22;32708;51.212;6.788;2023-01-20T06:53:32;3.20;99.90
48604;DHT22;32708;51.212;6.788;2023-01-20T06:56:00;3.10;99.90
48604;DHT22;32708;51.212;6.788;2023-01-20T06:58:29;3.10;99.90
48604;DHT22;32708;51.212;6.788;2023-01-20T07:00:56;3.30;99.90
48604;DHT22;32708;51.212;6.788;2023-01-20T07:03:23;3.00;99.90
48604;DHT22;32708;51.212;6.788;2023-01-20T07:06:00;2.90;99.90
48604;DHT22;32708;51.212;6.788;2023-01-20T07:08:27;3.40;99.90
48604;DHT22;32708;51.212;6.788;2023-01-20T07:10:54;2.90;99.90
48604;DHT22;32708;51.212;6.788;2023-01-20T07:13:20;3.00;99.90
48604;DHT22;32708;51.212;6.788;2023-01-20T07:15:46;3.20;99.90
48604;DHT22;32708;51.212;6.788;2023-01-20T07:18:12;3.00;99.90
48604;DHT22;32708;51.212;6.788;2023-01-20T07:20:39;3.00;99.90
48604;DHT22;32708;51.212;6.788;2023-01-20T07:23:05;3.00;99.90
48604;DHT22;32708;51.212;6.788;2023-01-20T07:25:31;3.10;99.90
48604;DHT22;32708;51.212;6.788;2023-01-20T07:27:57;2.90;99.90
48604;DHT22;32708;51.212;6.788;2023-01-20T07:30:24;3.40;99.90
48604;DHT22;32708;51.212;6.788;2023-01-20T07:32:52;3.00;99.90
48604;DHT22;32708;51.212;6.788;2023-01-20T07:35:18;3.00;99.90
48604;DHT22;32708;51.212;6.788;2023-01-20T07:37:45;3.00;99.90
48604;DHT22;32708;51.212;6.788;2023-01-20T07:40:11;3.30;99.90
48604;DHT22;32708;51.212;6.788;2023-01-20T07:42:38;3.10;99.90
48604;DHT22;32708;51.212;6.788;2023-01-20T07:45:04;3.10;99.90
48604;DHT22;32708;51.212;6.788;2023-01-20T07:47:31;3.00;99.90
48604;DHT22;32708;51.212;6.788;2023-01-20T07:49:57;2.80;99.90
48604;DHT22;32708;51.212;6.788;2023-01-20T07:52:23;2.80;99.90
48604;DHT22;32708;51.212;6.788;2023-01-20T07:54:49;2.80;99.90
48604;DHT22;32708;51.212;6.788;2023-01-20T07:57:17;2.90;99.90
48604;DHT22;32708;51.212;6.788;2023-01-20T07:59:43;3.20;99.90
48604;DHT22;32708;51.212;6.788;2023-01-20T08:02:09;3.50;99.90
48604;DHT22;32708;51.212;6.788;2023-01-20T08:04:38;3.20;99.90
48604;DHT22;32708;51.212;6.788;2023-01-20T08:07:04;3.20;99.90
48604;DHT22;32708;51.212;6.788;2023-01-20T08:09:31;3.10;99.90
48604;DHT22;32708;51.212;6.788;2023-01-20T08:11:57;2.90;99.90
48604;DHT22;32708;51.212;6.788;2023-01-20T08:14:23;3.10;99.90
48604;DHT22;32708;51.212;6.788;2023-01-20T08:16:49;3.10;99.90
48604;DHT22;32708;51.212;6.788;2023-01-20T08:19:15;3.10;99.90
48604;DHT22;32708;51.212;6.788;2023-01-20T08:21:41;3.20;99.90
48604;DHT22;32708;51.212;6.788;2023-01-20T08:24:09;3.30;99.90
48604;DHT22;32708;51.212;6.788;2023-01-20T08:26:35;2.90;99.90
48604;DHT22;32708;51.212;6.788;2023-01-20T08:29:07;2.80;99.90
48604;DHT22;32708;51.212;6.788;2023-01-20T08:31:33;2.90;99.90
48604;DHT22;32708;51.212;6.788;2023-01-20T08:34:00;2.90;99.90
48604;DHT22;32708;51.212;6.788;2023-01-20T08:36:29;2.90;99.90
48604;DHT22;32708;51.212;6.788;2023-01-20T08:39:00;3.00;99.90
48604;DHT22;32708;51.212;6.788;2023-01-20T08:41:30;3.10;99.90
48604;DHT22;32708;51.212;6.788;2023-01-20T08:43:58;3.00;99.90
48604;DHT22;32708;51.212;6.788;2023-01-20T08:46:25;3.00;99.90
48604;DHT22;32708;51.212;6.788;2023-01-20T08:48:51;3.00;99.90
48604;DHT22;32708;51.212;6.788;2023-01-20T08:51:29;3.40;99.90
48604;DHT22;32708;51.212;6.788;2023-01-20T08:53:57;2.90;99.90
48604;DHT22;32708;51.212;6.788;2023-01-20T08:56:23;2.90;99.90
48604;DHT22;32708;51.212;6.788;2023-01-20T08:58:49;3.00;99.90
48604;DHT22;32708;51.212;6.788;2023-01-20T09:01:21;3.10;99.90
48604;DHT22;32708;51.212;6.788;2023-01-20T09:03:48;3.20;99.90
48604;DHT22;32708;51.212;6.788;2023-01-20T09:06:14;3.20;99.90
48604;DHT22;32708;51.212;6.788;2023-01-20T09:08:40;3.10;99.90
48604;DHT22;32708;51.212;6.788;2023-01-20T09:11:10;3.40;99.90
48604;DHT22;32708;51.212;6.788;2023-01-20T09:13:41;3.20;99.90
48604;DHT22;32708;51.212;6.788;2023-01-20T09:16:09;3.30;99.90
48604;DHT22;32708;51.212;6.788;2023-01-20T09:18:36;3.00;99.90
48604;DHT22;32708;51.212;6.788;2023-01-20T09:21:02;3.10;99.90
48604;DHT22;32708;51.212;6.788;2023-01-20T09:23:33;3.20;99.90
48604;DHT22;32708;51.212;6.788;2023-01-20T09:26:00;3.40;99.90
48604;DHT22;32708;51.212;6.788;2023-01-20T09:28:27;3.60;99.90
48604;DHT22;32708;51.212;6.788;2023-01-20T09:30:58;3.30;99.90
48604;DHT22;32708;51.212;6.788;2023-01-20T09:33:30;3.20;99.90
48604;DHT22;32708;51.212;6.788;2023-01-20T09:35:58;3.40;99.90
48604;DHT22;32708;51.212;6.788;2023-01-20T09:38:25;3.40;99.90
48604;DHT22;32708;51.212;6.788;2023-01-20T09:41:17;3.30;99.90
48604;DHT22;32708;51.212;6.788;2023-01-20T09:47:10;3.50;99.90
48604;DHT22;32708;51.212;6.788;2023-01-20T09:53:09;3.50;99.90
48604;DHT22;32708;51.212;6.788;2023-01-20T09:55:50;3.40;99.90
48604;DHT22;32708;51.212;6.788;2023-01-20T09:58:46;3.50;99.90
48604;DHT22;32708;51.212;6.788;2023-01-20T10:04:10;3.50;99.90
48604;DHT22;32708;51.212;6.788;2023-01-20T10:07:09;3.50;99.90
48604;DHT22;32708;51.212;6.788;2023-01-20T10:15:25;3.40;99.90
48604;DHT22;32708;51.212;6.788;2023-01-20T10:21:09;3.50;99.90
48604;DHT22;32708;51.212;6.788;2023-01-20T10:23:57;3.50;99.90
48604;DHT22;32708;51.212;6.788;2023-01-20T10:28:58;3.60;99.90
48604;DHT22;32708;51.212;6.788;2023-01-20T10:31:29;3.70;99.90
48604;DHT22;32708;51.212;6.788;2023-01-20T10:34:09;3.90;99.90
48604;DHT22;32708;51.212;6.788;2023-01-20T10:36:45;3.70;99.90
48604;DHT22;32708;51.212;6.788;2023-01-20T10:42:17;3.60;99.90
48604;DHT22;32708;51.212;6.788;2023-01-20T10:44:46;3.80;99.90
48604;DHT22;32708;51.212;6.788;2023-01-20T10:47:41;3.70;99.90
48604;DHT22;32708;51.212;6.788;2023-01-20T10:53:02;4.00;99.90
48604;DHT22;32708;51.212;6.788;2023-01-20T10:55:50;3.90;99.90
48604;DHT22;32708;51.212;6.788;2023-01-20T11:00:51;3.90;99.90
48604;DHT22;32708;51.212;6.788;2023-01-20T11:03:20;3.60;99.90
48604;DHT22;32708;51.212;6.788;2023-01-20T11:05:48;3.70;99.90
48604;DHT22;32708;51.212;6.788;2023-01-20T11:08:35;3.80;99.90
48604;DHT22;32708;51.212;6.788;2023-01-20T11:11:12;3.90;99.90
48604;DHT22;32708;51.212;6.788;2023-01-20T11:13:39;4.00;99.90
48604;DHT22;32708;51.212;6.788;2023-01-20T11:16:20;4.00;99.90
48604;DHT22;32708;51.212;6.788;2023-01-20T11:19:04;3.90;99.90
48604;DHT22;32708;51.212;6.788;2023-01-20T11:21:36;3.80;99.90
48604;DHT22;32708;51.212;6.788;2023-01-20T11:24:41;3.80;99.90
48604;DHT22;32708;51.212;6.788;2023-01-20T11:27:15;3.80;99.90
48604;DHT22;32708;51.212;6.788;2023-01-20T11:29:48;3.90;99.90
48604;DHT22;32708;51.212;6.788;2023-01-20T11:32:37;3.90;99.90
48604;DHT22;32708;51.212;6.788;2023-01-20T11:35:25;4.10;99.90
48604;DHT22;32708;51.212;6.788;2023-01-20T11:37:51;3.80;99.90
48604;DHT22;32708;51.212;6.788;2023-01-20T11:40:21;3.80;99.90
48604;DHT22;32708;51.212;6.788;2023-01-20T11:42:50;4.00;99.90
48604;DHT22;32708;51.212;6.788;2023-01-20T11:45:31;4.20;99.90
48604;DHT22;32708;51.212;6.788;2023-01-20T11:50:35;4.20;99.90
48604;DHT22;32708;51.212;6.788;2023-01-20T11:53:24;4.10;99.90
48604;DHT22;32708;51.212;6.788;2023-01-20T11:58:59;4.10;99.90
48604;DHT22;32708;51.212;6.788;2023-01-20T12:01:30;4.20;99.90
48604;DHT22;32708;51.212;6.788;2023-01-20T12:07:06;4.20;99.90
48604;DHT22;32708;51.212;6.788;2023-01-20T12:09:37;4.50;99.90
48604;DHT22;32708;51.212;6.788;2023-01-20T12:15:01;4.30;99.90
48604;DHT22;32708;51.212;6.788;2023-01-20T12:17:43;4.20;99.90
48604;DHT22;32708;51.212;6.788;2023-01-20T12:23:13;4.20;99.90
48604;DHT22;32708;51.212;6.788;2023-01-20T12:25:54;4.30;99.90
48604;DHT22;32708;51.212;6.788;2023-01-20T12:28:44;4.40;99.90
48604;DHT22;32708;51.212;6.788;2023-01-20T12:31:16;4.50;99.90
48604;DHT22;32708;51.212;6.788;2023-01-20T12:34:11;4.30;99.90
48604;DHT22;32708;51.212;6.788;2023-01-20T12:37:09;4.20;99.90
48604;DHT22;32708;51.212;6.788;2023-01-20T12:40:03;4.20;99.90
48604;DHT22;32708;51.212;6.788;2023-01-20T12:45:51;4.10;99.90
48604;DHT22;32708;51.212;6.788;2023-01-20T12:51:27;4.10;99.90
48604;DHT22;32708;51.212;6.788;2023-01-20T13:16:03;3.70;99.90
48604;DHT22;32708;51.212;6.788;2023-01-20T13:19:37;3.60;99.90
48604;DHT22;32708;51.212;6.788;2023-01-20T13:21:44;3.50;99.90
48604;DHT22;32708;51.212;6.788;2023-01-20T13:24:16;3.60;99.90
48604;DHT22;32708;51.212;6.788;2023-01-20T13:26:46;3.70;99.90
48604;DHT22;32708;51.212;6.788;2023-01-20T13:29:39;3.80;99.90
48604;DHT22;32708;51.212;6.788;2023-01-20T13:32:30;3.60;99.90
48604;DHT22;32708;51.212;6.788;2023-01-20T13:34:59;3.50;99.90
48604;DHT22;32708;51.212;6.788;2023-01-20T13:37:36;3.50;99.90
48604;DHT22;32708;51.212;6.788;2023-01-20T13:42:55;3.50;99.90
48604;DHT22;32708;51.212;6.788;2023-01-20T13:45:23;3.60;99.90
48604;DHT22;32708;51.212;6.788;2023-01-20T13:50:42;3.50;99.90
48604;DHT22;32708;51.212;6.788;2023-01-20T13:53:27;3.50;99.90
48604;DHT22;32708;51.212;6.788;2023-01-20T13:56:29;3.80;99.90
48604;DHT22;32708;51.212;6.788;2023-01-20T13:58:59;3.50;99.90
48604;DHT22;32708;51.212;6.788;2023-01-20T14:01:26;3.40;99.90
48604;DHT22;32708;51.212;6.788;2023-01-20T14:04:03;3.40;99.90
48604;DHT22;32708;51.212;6.788;2023-01-20T14:06:30;3.30;99.90
48604;DHT22;32708;51.212;6.788;2023-01-20T14:08:59;3.30;99.90
48604;DHT22;32708;51.212;6.788;2023-01-20T14:11:28;3.20;99.90
48604;DHT22;32708;51.212;6.788;2023-01-20T14:13:58;3.30;99.90
48604;DHT22;32708;51.212;6.788;2023-01-20T14:16:35;3.30;99.90
48604;DHT22;32708;51.212;6.788;2023-01-20T14:19:48;3.40;99.90
48604;DHT22;32708;51.212;6.788;2023-01-20T14:22:21;3.40;99.90
48604;DHT22;32708;51.212;6.788;2023-01-20T14:24:50;3.50;99.90
48604;DHT22;32708;51.212;6.788;2023-01-20T14:27:31;3.30;99.90
48604;DHT22;32708;51.212;6.788;2023-01-20T14:30:24;3.40;99.90
48604;DHT22;32708;51.212;6.788;2023-01-20T14:32:52;3.30;99.90
48604;DHT22;32708;51.212;6.788;2023-01-20T14:35:31;3.30;99.90
48604;DHT22;32708;51.212;6.788;2023-01-20T14:38:02;3.50;99.90
48604;DHT22;32708;51.212;6.788;2023-01-20T14:40:33;3.40;99.90
48604;DHT22;32708;51.212;6.788;2023-01-20T14:43:18;3.50;99.90
48604;DHT22;32708;51.212;6.788;2023-01-20T14:45:48;3.30;99.90
48604;DHT22;32708;51.212;6.788;2023-01-20T14:48:16;3.30;99.90
48604;DHT22;32708;51.212;6.788;2023-01-20T14:50:48;3.20;99.90
48604;DHT22;32708;51.212;6.788;2023-01-20T14:53:14;3.20;99.90
48604;DHT22;32708;51.212;6.788;2023-01-20T14:56:04;3.30;99.90
48604;DHT22;32708;51.212;6.788;2023-01-20T14:58:34;3.20;99.90
48604;DHT22;32708;51.212;6.788;2023-01-20T15:01:05;3.20;99.90
48604;DHT22;32708;51.212;6.788;2023-01-20T15:03:31;3.20;99.90
48604;DHT22;32708;51.212;6.788;2023-01-20T15:13:39;3.30;99.90
48604;DHT22;32708;51.212;6.788;2023-01-20T15:16:22;3.30;99.90
48604;DHT22;32708;51.212;6.788;2023-01-20T15:21:54;3.20;99.90
48604;DHT22;32708;51.212;6.788;2023-01-20T15:24:29;3.20;99.90
48604;DHT22;32708;51.212;6.788;2023-01-20T15:26:58;3.20;99.90
48604;DHT22;32708;51.212;6.788;2023-01-20T15:29:34;3.60;99.90
48604;DHT22;32708;51.212;6.788;2023-01-20T15:32:10;3.30;99.90
48604;DHT22;32708;51.212;6.788;2023-01-20T15:34:36;3.30;99.90
48604;DHT22;32708;51.212;6.788;2023-01-20T15:37:13;3.60;99.90
48604;DHT22;32708;51.212;6.788;2023-01-20T15:39:41;3.30;99.90
48604;DHT22;32708;51.212;6.788;2023-01-20T15:42:12;3.30;99.90
48604;DHT22;32708;51.212;6.788;2023-01-20T15:44:40;3.30;99.90
48604;DHT22;32708;51.212;6.788;2023-01-20T15:47:21;3.30;99.90
48604;DHT22;32708;51.212;6.788;2023-01-20T15:49:51;3.30;99.90
48604;DHT22;32708;51.212;6.788;2023-01-20T15:52:19;3.20;99.90
48604;DHT22;32708;51.212;6.788;2023-01-20T15:54:45;3.30;99.90
48604;DHT22;32708;51.212;6.788;2023-01-20T15:57:14;3.20;99.90
48604;DHT22;32708;51.212;6.788;2023-01-20T15:59:41;3.30;99.90
48604;DHT22;32708;51.212;6.788;2023-01-20T16:02:18;3.50;99.90
48604;DHT22;32708;51.212;6.788;2023-01-20T16:04:44;3.30;99.90
48604;DHT22;32708;51.212;6.788;2023-01-20T16:07:13;3.30;99.90
48604;DHT22;32708;51.212;6.788;2023-01-20T16:09:40;3.30;99.90
48604;DHT22;32708;51.212;6.788;2023-01-20T16:12:11;3.30;99.90
48604;DHT22;32708;51.212;6.788;2023-01-20T16:14:37;3.20;99.90
48604;DHT22;32708;51.212;6.788;2023-01-20T16:17:11;3.20;99.90
48604;DHT22;32708;51.212;6.788;2023-01-20T16:19:38;3.20;99.90
48604;DHT22;32708;51.212;6.788;2023-01-20T16:22:04;3.20;99.90
48604;DHT22;32708;51.212;6.788;2023-01-20T16:24:31;3.30;99.90
48604;DHT22;32708;51.212;6.788;2023-01-20T16:26:58;3.40;99.90
48604;DHT22;32708;51.212;6.788;2023-01-20T16:29:24;3.20;99.90
48604;DHT22;32708;51.212;6.788;2023-01-20T16:31:50;3.30;99.90
48604;DHT22;32708;51.212;6.788;2023-01-20T16:34:16;3.10;99.90
48604;DHT22;32708;51.212;6.788;2023-01-20T16:36:43;3.30;99.90
48604;DHT22;32708;51.212;6.788;2023-01-20T16:39:09;3.30;99.90
48604;DHT22;32708;51.212;6.788;2023-01-20T16:41:36;3.30;99.90
48604;DHT22;32708;51.212;6.788;2023-01-20T16:44:02;3.30;99.90
48604;DHT22;32708;51.212;6.788;2023-01-20T16:46:30;3.20;99.90
48604;DHT22;32708;51.212;6.788;2023-01-20T16:48:58;3.20;99.90
48604;DHT22;32708;51.212;6.788;2023-01-20T16:51:27;3.40;99.90
48604;DHT22;32708;51.212;6.788;2023-01-20T16:53:55;3.20;99.90
48604;DHT22;32708;51.212;6.788;2023-01-20T16:56:27;3.10;99.90
48604;DHT22;32708;51.212;6.788;2023-01-20T16:58:55;3.10;99.90
48604;DHT22;32708;51.212;6.788;2023-01-20T17:01:26;3.20;99.90
48604;DHT22;32708;51.212;6.788;2023-01-20T17:03:59;3.10;99.90
48604;DHT22;32708;51.212;6.788;2023-01-20T17:06:30;3.00;99.90
48604;DHT22;32708;51.212;6.788;2023-01-20T17:08:58;3.00;99.90
48604;DHT22;32708;51.212;6.788;2023-01-20T17:11:35;2.90;99.90
48604;DHT22;32708;51.212;6.788;2023-01-20T17:14:04;2.90;99.90
48604;DHT22;32708;51.212;6.788;2023-01-20T17:16:31;2.90;99.90
48604;DHT22;32708;51.212;6.788;2023-01-20T17:18:59;2.90;99.90
48604;DHT22;32708;51.212;6.788;2023-01-20T17:21:30;2.90;99.90
48604;DHT22;32708;51.212;6.788;2023-01-20T17:24:02;2.90;99.90
48604;DHT22;32708;51.212;6.788;2023-01-20T17:26:30;2.80;99.90
48604;DHT22;32708;51.212;6.788;2023-01-20T17:28:59;2.70;99.90
48604;DHT22;32708;51.212;6.788;2023-01-20T17:31:30;2.70;99.90
48604;DHT22;32708;51.212;6.788;2023-01-20T17:34:05;2.90;99.90
48604;DHT22;32708;51.212;6.788;2023-01-20T17:36:32;2.60;99.90
48604;DHT22;32708;51.212;6.788;2023-01-20T17:39:00;2.60;99.90
48604;DHT22;32708;51.212;6.788;2023-01-20T17:41:27;2.60;99.90
48604;DHT22;32708;51.212;6.788;2023-01-20T17:43:53;2.60;99.90
48604;DHT22;32708;51.212;6.788;2023-01-20T17:46:22;2.50;99.90
48604;DHT22;32708;51.212;6.788;2023-01-20T17:48:50;2.50;99.90
48604;DHT22;32708;51.212;6.788;2023-01-20T17:51:22;2.60;99.90
48604;DHT22;32708;51.212;6.788;2023-01-20T17:53:48;2.40;99.90
48604;DHT22;32708;51.212;6.788;2023-01-20T17:56:16;2.20;99.90
48604;DHT22;32708;51.212;6.788;2023-01-20T17:58:44;2.40;99.90
48604;DHT22;32708;51.212;6.788;2023-01-20T18:01:19;2.30;99.90
48604;DHT22;32708;51.212;6.788;2023-01-20T18:03:48;2.20;99.90
48604;DHT22;32708;51.212;6.788;2023-01-20T18:06:16;2.20;99.90